sensor_id;sensor_type;location;lat;lon;timestamp;P1;durP1;ratioP1;P2;durP2;ratioP2
61756;SDS011;57225;61.460;24.060;2022-08-01T00:01:25;2.97;;;1.60;;
61756;SDS011;57225;61.460;24.060;2022-08-01T00:04:10;4.70;;;1.73;;
61756;SDS011;57225;61.460;24.060;2022-08-01T00:06:54;2.20;;;1.40;;
61756;SDS011;57225;61.460;24.060;2022-08-01T00:09:39;5.30;;;1.70;;
61756;SDS011;57225;61.460;24.060;2022-08-01T00:12:23;3.08;;;1.60;;
61756;SDS011;57225;61.460;24.060;2022-08-01T00:15:08;5.88;;;1.77;;
61756;SDS011;57225;61.460;24.060;2022-08-01T00:17:54;5.78;;;1.50;;
61756;SDS011;57225;61.460;24.060;2022-08-01T00:20:38;2.22;;;1.58;;
61756;SDS011;57225;61.460;24.060;2022-08-01T00:23:23;1.92;;;1.42;;
61756;SDS011;57225;61.460;24.060;2022-08-01T00:26:07;2.13;;;1.20;;
61756;SDS011;57225;61.460;24.060;2022-08-01T00:28:51;2.28;;;1.48;;
61756;SDS011;57225;61.460;24.060;2022-08-01T00:31:36;2.92;;;1.30;;
61756;SDS011;57225;61.460;24.060;2022-08-01T00:34:20;2.00;;;1.40;;
61756;SDS011;57225;61.460;24.060;2022-08-01T00:37:04;2.05;;;1.35;;
61756;SDS011;57225;61.460;24.060;2022-08-01T00:39:48;2.15;;;1.40;;
61756;SDS011;57225;61.460;24.060;2022-08-01T00:42:33;2.53;;;1.35;;
61756;SDS011;57225;61.460;24.060;2022-08-01T00:45:17;2.13;;;1.40;;
61756;SDS011;57225;61.460;24.060;2022-08-01T00:48:02;2.92;;;1.30;;
61756;SDS011;57225;61.460;24.060;2022-08-01T00:50:46;3.22;;;1.73;;
61756;SDS011;57225;61.460;24.060;2022-08-01T00:53:33;3.42;;;1.48;;
61756;SDS011;57225;61.460;24.060;2022-08-01T00:56:19;2.60;;;1.80;;
61756;SDS011;57225;61.460;24.060;2022-08-01T00:59:04;4.38;;;1.80;;
61756;SDS011;57225;61.460;24.060;2022-08-01T01:01:49;2.97;;;1.52;;
61756;SDS011;57225;61.460;24.060;2022-08-01T01:04:34;6.00;;;1.60;;
61756;SDS011;57225;61.460;24.060;2022-08-01T01:10:37;3.30;;;1.50;;
61756;SDS011;57225;61.460;24.060;2022-08-01T01:16:27;3.58;;;1.50;;
61756;SDS011;57225;61.460;24.060;2022-08-01T01:19:16;1.55;;;1.20;;
61756;SDS011;57225;61.460;24.060;2022-08-01T01:28:34;2.10;;;1.40;;
61756;SDS011;57225;61.460;24.060;2022-08-01T01:35:09;3.92;;;1.70;;
61756;SDS011;57225;61.460;24.060;2022-08-01T01:38:01;2.38;;;1.60;;
61756;SDS011;57225;61.460;24.060;2022-08-01T01:40:51;2.65;;;1.70;;
61756;SDS011;57225;61.460;24.060;2022-08-01T01:43:37;2.75;;;1.90;;
61756;SDS011;57225;61.460;24.060;2022-08-01T01:46:23;3.47;;;1.73;;
61756;SDS011;57225;61.460;24.060;2022-08-01T01:49:11;1.70;;;1.45;;
61756;SDS011;57225;61.460;24.060;2022-08-01T01:51:56;2.97;;;1.25;;
61756;SDS011;57225;61.460;24.060;2022-08-01T01:54:42;2.30;;;1.27;;
61756;SDS011;57225;61.460;24.060;2022-08-01T01:57:30;5.45;;;1.90;;
61756;SDS011;57225;61.460;24.060;2022-08-01T02:00:17;3.78;;;2.00;;
61756;SDS011;57225;61.460;24.060;2022-08-01T02:03:02;2.78;;;1.80;;
61756;SDS011;57225;61.460;24.060;2022-08-01T02:05:49;3.13;;;1.30;;
61756;SDS011;57225;61.460;24.060;2022-08-01T02:08:36;5.07;;;1.55;;
61756;SDS011;57225;61.460;24.060;2022-08-01T02:11:23;2.25;;;1.48;;
61756;SDS011;57225;61.460;24.060;2022-08-01T02:14:07;1.92;;;1.40;;
61756;SDS011;57225;61.460;24.060;2022-08-01T02:16:53;2.63;;;1.50;;
61756;SDS011;57225;61.460;24.060;2022-08-01T02:19:41;2.65;;;1.70;;
61756;SDS011;57225;61.460;24.060;2022-08-01T02:22:30;1.70;;;1.20;;
61756;SDS011;57225;61.460;24.060;2022-08-01T02:28:36;2.03;;;1.25;;
61756;SDS011;57225;61.460;24.060;2022-08-01T02:31:27;2.83;;;1.48;;
61756;SDS011;57225;61.460;24.060;2022-08-01T02:34:16;1.95;;;1.27;;
61756;SDS011;57225;61.460;24.060;2022-08-01T02:37:03;2.83;;;1.38;;
61756;SDS011;57225;61.460;24.060;2022-08-01T02:39:49;2.78;;;1.30;;
61756;SDS011;57225;61.460;24.060;2022-08-01T02:42:35;2.13;;;1.30;;
61756;SDS011;57225;61.460;24.060;2022-08-01T02:45:24;2.13;;;1.23;;
61756;SDS011;57225;61.460;24.060;2022-08-01T02:48:10;2.38;;;1.17;;
61756;SDS011;57225;61.460;24.060;2022-08-01T02:50:57;2.28;;;1.55;;
61756;SDS011;57225;61.460;24.060;2022-08-01T02:53:44;2.47;;;1.30;;
61756;SDS011;57225;61.460;24.060;2022-08-01T02:56:30;6.47;;;1.05;;
61756;SDS011;57225;61.460;24.060;2022-08-01T03:02:09;3.22;;;1.60;;
61756;SDS011;57225;61.460;24.060;2022-08-01T03:04:54;1.95;;;1.45;;
61756;SDS011;57225;61.460;24.060;2022-08-01T03:07:41;2.25;;;1.40;;
61756;SDS011;57225;61.460;24.060;2022-08-01T03:10:29;3.78;;;1.40;;
61756;SDS011;57225;61.460;24.060;2022-08-01T03:13:14;5.35;;;1.60;;
61756;SDS011;57225;61.460;24.060;2022-08-01T03:16:01;2.20;;;1.50;;
61756;SDS011;57225;61.460;24.060;2022-08-01T03:18:47;2.63;;;1.55;;
61756;SDS011;57225;61.460;24.060;2022-08-01T03:21:33;1.85;;;1.25;;
61756;SDS011;57225;61.460;24.060;2022-08-01T03:24:19;2.05;;;1.20;;
61756;SDS011;57225;61.460;24.060;2022-08-01T03:27:06;3.97;;;1.30;;
61756;SDS011;57225;61.460;24.060;2022-08-01T03:29:54;2.97;;;1.30;;
61756;SDS011;57225;61.460;24.060;2022-08-01T03:32:40;2.20;;;1.38;;
61756;SDS011;57225;61.460;24.060;2022-08-01T03:35:29;3.00;;;1.23;;
61756;SDS011;57225;61.460;24.060;2022-08-01T03:38:18;1.83;;;1.20;;
61756;SDS011;57225;61.460;24.060;2022-08-01T03:41:15;5.97;;;1.30;;
61756;SDS011;57225;61.460;24.060;2022-08-01T03:44:05;2.80;;;1.30;;
61756;SDS011;57225;61.460;24.060;2022-08-01T03:46:56;4.30;;;1.38;;
61756;SDS011;57225;61.460;24.060;2022-08-01T03:49:44;2.25;;;1.33;;
61756;SDS011;57225;61.460;24.060;2022-08-01T03:52:32;3.13;;;1.20;;
61756;SDS011;57225;61.460;24.060;2022-08-01T03:55:18;5.20;;;1.10;;
61756;SDS011;57225;61.460;24.060;2022-08-01T03:58:05;4.72;;;1.20;;
61756;SDS011;57225;61.460;24.060;2022-08-01T04:00:51;5.65;;;1.25;;
61756;SDS011;57225;61.460;24.060;2022-08-01T04:03:36;4.65;;;1.02;;
61756;SDS011;57225;61.460;24.060;2022-08-01T04:06:21;2.22;;;1.00;;
61756;SDS011;57225;61.460;24.060;2022-08-01T04:09:09;1.85;;;1.10;;
61756;SDS011;57225;61.460;24.060;2022-08-01T04:11:54;2.78;;;1.10;;
61756;SDS011;57225;61.460;24.060;2022-08-01T04:14:38;1.88;;;1.30;;
61756;SDS011;57225;61.460;24.060;2022-08-01T04:17:25;3.20;;;1.23;;
61756;SDS011;57225;61.460;24.060;2022-08-01T04:20:10;3.50;;;1.17;;
61756;SDS011;57225;61.460;24.060;2022-08-01T04:22:54;2.20;;;1.10;;
61756;SDS011;57225;61.460;24.060;2022-08-01T04:25:38;3.22;;;1.23;;
61756;SDS011;57225;61.460;24.060;2022-08-01T04:28:26;1.85;;;1.10;;
61756;SDS011;57225;61.460;24.060;2022-08-01T04:31:12;3.13;;;1.52;;
61756;SDS011;57225;61.460;24.060;2022-08-01T04:34:00;5.90;;;2.25;;
61756;SDS011;57225;61.460;24.060;2022-08-01T04:36:48;4.00;;;1.83;;
61756;SDS011;57225;61.460;24.060;2022-08-01T04:39:34;3.42;;;1.80;;
61756;SDS011;57225;61.460;24.060;2022-08-01T04:42:22;3.80;;;1.40;;
61756;SDS011;57225;61.460;24.060;2022-08-01T04:45:07;6.85;;;1.65;;
61756;SDS011;57225;61.460;24.060;2022-08-01T04:47:54;3.00;;;1.10;;
61756;SDS011;57225;61.460;24.060;2022-08-01T04:50:41;3.33;;;1.30;;
61756;SDS011;57225;61.460;24.060;2022-08-01T04:53:25;4.05;;;1.30;;
61756;SDS011;57225;61.460;24.060;2022-08-01T04:56:10;4.47;;;1.55;;
61756;SDS011;57225;61.460;24.060;2022-08-01T04:58:56;5.05;;;1.15;;
61756;SDS011;57225;61.460;24.060;2022-08-01T05:01:59;3.40;;;0.95;;
61756;SDS011;57225;61.460;24.060;2022-08-01T05:04:43;4.75;;;1.02;;
61756;SDS011;57225;61.460;24.060;2022-08-01T05:07:29;2.15;;;1.02;;
61756;SDS011;57225;61.460;24.060;2022-08-01T05:10:13;4.20;;;1.00;;
61756;SDS011;57225;61.460;24.060;2022-08-01T05:12:57;1.52;;;0.60;;
61756;SDS011;57225;61.460;24.060;2022-08-01T05:15:42;2.15;;;0.70;;
61756;SDS011;57225;61.460;24.060;2022-08-01T05:18:26;3.03;;;0.80;;
61756;SDS011;57225;61.460;24.060;2022-08-01T05:21:11;1.40;;;0.80;;
61756;SDS011;57225;61.460;24.060;2022-08-01T05:23:55;1.42;;;0.90;;
61756;SDS011;57225;61.460;24.060;2022-08-01T05:26:41;2.40;;;1.00;;
61756;SDS011;57225;61.460;24.060;2022-08-01T05:29:26;2.72;;;1.00;;
61756;SDS011;57225;61.460;24.060;2022-08-01T05:32:11;2.85;;;0.70;;
61756;SDS011;57225;61.460;24.060;2022-08-01T05:34:55;4.20;;;1.17;;
61756;SDS011;57225;61.460;24.060;2022-08-01T05:37:39;2.20;;;0.93;;
61756;SDS011;57225;61.460;24.060;2022-08-01T05:40:23;3.22;;;0.90;;
61756;SDS011;57225;61.460;24.060;2022-08-01T05:43:07;1.52;;;0.85;;
61756;SDS011;57225;61.460;24.060;2022-08-01T05:45:52;3.80;;;1.20;;
61756;SDS011;57225;61.460;24.060;2022-08-01T05:48:36;3.83;;;1.00;;
61756;SDS011;57225;61.460;24.060;2022-08-01T05:51:21;2.08;;;1.08;;
61756;SDS011;57225;61.460;24.060;2022-08-01T05:54:05;4.95;;;0.93;;
61756;SDS011;57225;61.460;24.060;2022-08-01T05:56:49;3.15;;;1.00;;
61756;SDS011;57225;61.460;24.060;2022-08-01T05:59:33;4.05;;;1.20;;
61756;SDS011;57225;61.460;24.060;2022-08-01T06:02:21;2.40;;;0.90;;
61756;SDS011;57225;61.460;24.060;2022-08-01T06:05:06;2.38;;;1.13;;
61756;SDS011;57225;61.460;24.060;2022-08-01T06:07:50;3.97;;;1.08;;
61756;SDS011;57225;61.460;24.060;2022-08-01T06:10:35;3.92;;;1.05;;
61756;SDS011;57225;61.460;24.060;2022-08-01T06:13:19;4.22;;;1.38;;
61756;SDS011;57225;61.460;24.060;2022-08-01T06:16:04;4.00;;;1.05;;
61756;SDS011;57225;61.460;24.060;2022-08-01T06:18:48;2.28;;;1.20;;
61756;SDS011;57225;61.460;24.060;2022-08-01T06:21:32;2.67;;;1.30;;
61756;SDS011;57225;61.460;24.060;2022-08-01T06:24:17;3.17;;;1.10;;
61756;SDS011;57225;61.460;24.060;2022-08-01T06:27:02;2.85;;;1.13;;
61756;SDS011;57225;61.460;24.060;2022-08-01T06:29:46;2.75;;;0.93;;
61756;SDS011;57225;61.460;24.060;2022-08-01T06:32:31;4.25;;;1.40;;
61756;SDS011;57225;61.460;24.060;2022-08-01T06:35:15;1.77;;;1.13;;
61756;SDS011;57225;61.460;24.060;2022-08-01T06:38:01;2.17;;;0.82;;
61756;SDS011;57225;61.460;24.060;2022-08-01T06:40:46;6.43;;;1.48;;
61756;SDS011;57225;61.460;24.060;2022-08-01T06:43:30;3.72;;;1.00;;
61756;SDS011;57225;61.460;24.060;2022-08-01T06:46:15;2.60;;;1.10;;
61756;SDS011;57225;61.460;24.060;2022-08-01T06:49:00;4.15;;;1.00;;
61756;SDS011;57225;61.460;24.060;2022-08-01T06:51:44;3.03;;;1.00;;
61756;SDS011;57225;61.460;24.060;2022-08-01T06:54:28;2.88;;;0.90;;
61756;SDS011;57225;61.460;24.060;2022-08-01T06:57:13;4.53;;;0.80;;
61756;SDS011;57225;61.460;24.060;2022-08-01T06:59:57;2.85;;;0.88;;
61756;SDS011;57225;61.460;24.060;2022-08-01T07:02:44;6.55;;;1.48;;
61756;SDS011;57225;61.460;24.060;2022-08-01T07:05:29;3.60;;;1.20;;
61756;SDS011;57225;61.460;24.060;2022-08-01T07:08:14;2.75;;;1.17;;
61756;SDS011;57225;61.460;24.060;2022-08-01T07:10:59;2.00;;;0.80;;
61756;SDS011;57225;61.460;24.060;2022-08-01T07:13:44;2.65;;;0.80;;
61756;SDS011;57225;61.460;24.060;2022-08-01T07:16:29;1.38;;;0.73;;
61756;SDS011;57225;61.460;24.060;2022-08-01T07:19:13;4.95;;;1.00;;
61756;SDS011;57225;61.460;24.060;2022-08-01T07:21:57;4.35;;;0.88;;
61756;SDS011;57225;61.460;24.060;2022-08-01T07:24:42;5.53;;;1.08;;
61756;SDS011;57225;61.460;24.060;2022-08-01T07:27:26;3.70;;;0.80;;
61756;SDS011;57225;61.460;24.060;2022-08-01T07:30:11;4.97;;;0.68;;
61756;SDS011;57225;61.460;24.060;2022-08-01T07:32:55;1.50;;;0.68;;
61756;SDS011;57225;61.460;24.060;2022-08-01T07:35:40;2.75;;;0.90;;
61756;SDS011;57225;61.460;24.060;2022-08-01T07:38:24;3.22;;;0.82;;
61756;SDS011;57225;61.460;24.060;2022-08-01T07:41:09;0.95;;;0.60;;
61756;SDS011;57225;61.460;24.060;2022-08-01T07:43:53;4.05;;;0.90;;
61756;SDS011;57225;61.460;24.060;2022-08-01T07:46:37;1.75;;;0.90;;
61756;SDS011;57225;61.460;24.060;2022-08-01T07:49:22;2.85;;;0.70;;
61756;SDS011;57225;61.460;24.060;2022-08-01T07:52:07;1.60;;;0.85;;
61756;SDS011;57225;61.460;24.060;2022-08-01T07:54:52;7.40;;;0.98;;
61756;SDS011;57225;61.460;24.060;2022-08-01T07:57:36;3.05;;;0.90;;
61756;SDS011;57225;61.460;24.060;2022-08-01T08:00:21;5.90;;;0.80;;
61756;SDS011;57225;61.460;24.060;2022-08-01T08:03:06;4.78;;;1.17;;
61756;SDS011;57225;61.460;24.060;2022-08-01T08:05:50;2.20;;;0.80;;
61756;SDS011;57225;61.460;24.060;2022-08-01T08:08:34;3.90;;;1.00;;
61756;SDS011;57225;61.460;24.060;2022-08-01T08:11:19;2.22;;;1.23;;
61756;SDS011;57225;61.460;24.060;2022-08-01T08:14:03;1.58;;;0.80;;
61756;SDS011;57225;61.460;24.060;2022-08-01T08:16:48;6.45;;;0.90;;
61756;SDS011;57225;61.460;24.060;2022-08-01T08:19:32;2.05;;;0.70;;
61756;SDS011;57225;61.460;24.060;2022-08-01T08:22:17;1.60;;;0.80;;
61756;SDS011;57225;61.460;24.060;2022-08-01T08:25:01;1.33;;;0.80;;
61756;SDS011;57225;61.460;24.060;2022-08-01T08:27:49;1.90;;;0.55;;
61756;SDS011;57225;61.460;24.060;2022-08-01T08:30:37;1.92;;;0.73;;
61756;SDS011;57225;61.460;24.060;2022-08-01T08:33:21;0.98;;;0.65;;
61756;SDS011;57225;61.460;24.060;2022-08-01T08:36:05;2.78;;;0.80;;
61756;SDS011;57225;61.460;24.060;2022-08-01T08:38:49;1.25;;;0.70;;
61756;SDS011;57225;61.460;24.060;2022-08-01T08:41:35;1.73;;;0.80;;
61756;SDS011;57225;61.460;24.060;2022-08-01T08:44:19;1.48;;;0.80;;
61756;SDS011;57225;61.460;24.060;2022-08-01T08:47:05;1.45;;;0.52;;
61756;SDS011;57225;61.460;24.060;2022-08-01T08:49:52;2.20;;;0.77;;
61756;SDS011;57225;61.460;24.060;2022-08-01T08:52:37;2.30;;;0.80;;
61756;SDS011;57225;61.460;24.060;2022-08-01T08:55:23;3.58;;;0.90;;
61756;SDS011;57225;61.460;24.060;2022-08-01T08:58:14;3.30;;;0.80;;
61756;SDS011;57225;61.460;24.060;2022-08-01T09:01:01;1.70;;;0.70;;
61756;SDS011;57225;61.460;24.060;2022-08-01T09:03:46;2.60;;;0.75;;
61756;SDS011;57225;61.460;24.060;2022-08-01T09:06:31;2.45;;;0.70;;
61756;SDS011;57225;61.460;24.060;2022-08-01T09:09:16;3.63;;;0.80;;
61756;SDS011;57225;61.460;24.060;2022-08-01T09:12:01;1.92;;;0.90;;
61756;SDS011;57225;61.460;24.060;2022-08-01T09:14:46;1.52;;;0.90;;
61756;SDS011;57225;61.460;24.060;2022-08-01T09:17:38;1.85;;;0.90;;
61756;SDS011;57225;61.460;24.060;2022-08-01T09:20:25;1.95;;;0.88;;
61756;SDS011;57225;61.460;24.060;2022-08-01T09:23:30;1.17;;;0.90;;
61756;SDS011;57225;61.460;24.060;2022-08-01T09:26:30;3.00;;;0.90;;
61756;SDS011;57225;61.460;24.060;2022-08-01T09:29:20;0.88;;;0.70;;
61756;SDS011;57225;61.460;24.060;2022-08-01T09:32:06;2.17;;;0.70;;
61756;SDS011;57225;61.460;24.060;2022-08-01T09:34:50;2.00;;;0.73;;
61756;SDS011;57225;61.460;24.060;2022-08-01T09:37:35;1.08;;;0.65;;
61756;SDS011;57225;61.460;24.060;2022-08-01T09:40:19;1.80;;;0.75;;
61756;SDS011;57225;61.460;24.060;2022-08-01T09:43:10;0.70;;;0.70;;
61756;SDS011;57225;61.460;24.060;2022-08-01T09:45:56;1.10;;;0.70;;
61756;SDS011;57225;61.460;24.060;2022-08-01T09:49:00;3.85;;;0.77;;
61756;SDS011;57225;61.460;24.060;2022-08-01T09:51:46;0.95;;;0.70;;
61756;SDS011;57225;61.460;24.060;2022-08-01T09:54:31;4.10;;;0.70;;
61756;SDS011;57225;61.460;24.060;2022-08-01T09:57:17;5.47;;;1.02;;
61756;SDS011;57225;61.460;24.060;2022-08-01T10:00:03;1.98;;;0.73;;
61756;SDS011;57225;61.460;24.060;2022-08-01T10:02:48;2.13;;;0.80;;
61756;SDS011;57225;61.460;24.060;2022-08-01T10:05:33;1.27;;;1.00;;
61756;SDS011;57225;61.460;24.060;2022-08-01T10:08:18;1.25;;;0.77;;
61756;SDS011;57225;61.460;24.060;2022-08-01T10:11:08;2.80;;;0.70;;
61756;SDS011;57225;61.460;24.060;2022-08-01T10:13:54;1.88;;;0.60;;
61756;SDS011;57225;61.460;24.060;2022-08-01T10:16:41;0.70;;;0.70;;
61756;SDS011;57225;61.460;24.060;2022-08-01T10:19:26;1.00;;;0.60;;
61756;SDS011;57225;61.460;24.060;2022-08-01T10:22:12;1.35;;;0.60;;
61756;SDS011;57225;61.460;24.060;2022-08-01T10:25:02;3.17;;;0.73;;
61756;SDS011;57225;61.460;24.060;2022-08-01T10:27:52;2.00;;;0.80;;
61756;SDS011;57225;61.460;24.060;2022-08-01T10:30:41;1.55;;;0.90;;
61756;SDS011;57225;61.460;24.060;2022-08-01T10:33:26;1.60;;;0.82;;
61756;SDS011;57225;61.460;24.060;2022-08-01T10:36:11;1.02;;;0.70;;
61756;SDS011;57225;61.460;24.060;2022-08-01T10:38:56;1.50;;;0.82;;
61756;SDS011;57225;61.460;24.060;2022-08-01T10:41:41;3.28;;;0.73;;
61756;SDS011;57225;61.460;24.060;2022-08-01T10:44:26;2.40;;;0.73;;
61756;SDS011;57225;61.460;24.060;2022-08-01T10:47:14;2.60;;;1.08;;
61756;SDS011;57225;61.460;24.060;2022-08-01T10:56:02;2.58;;;0.93;;
61756;SDS011;57225;61.460;24.060;2022-08-01T10:58:47;0.80;;;0.57;;
61756;SDS011;57225;61.460;24.060;2022-08-01T11:01:32;0.70;;;0.60;;
61756;SDS011;57225;61.460;24.060;2022-08-01T11:04:18;1.52;;;0.70;;
61756;SDS011;57225;61.460;24.060;2022-08-01T11:07:07;1.52;;;0.85;;
61756;SDS011;57225;61.460;24.060;2022-08-01T11:10:09;0.60;;;0.50;;
61756;SDS011;57225;61.460;24.060;2022-08-01T11:13:00;0.82;;;0.60;;
61756;SDS011;57225;61.460;24.060;2022-08-01T11:15:47;2.22;;;0.70;;
61756;SDS011;57225;61.460;24.060;2022-08-01T11:18:31;0.80;;;0.70;;
61756;SDS011;57225;61.460;24.060;2022-08-01T11:21:16;1.38;;;0.50;;
61756;SDS011;57225;61.460;24.060;2022-08-01T11:24:02;2.08;;;0.80;;
61756;SDS011;57225;61.460;24.060;2022-08-01T11:32:54;1.65;;;0.80;;
61756;SDS011;57225;61.460;24.060;2022-08-01T11:41:52;1.42;;;0.80;;
61756;SDS011;57225;61.460;24.060;2022-08-01T11:44:47;0.75;;;0.68;;
61756;SDS011;57225;61.460;24.060;2022-08-01T11:47:45;1.30;;;0.75;;
61756;SDS011;57225;61.460;24.060;2022-08-01T11:53:13;0.88;;;0.63;;
61756;SDS011;57225;61.460;24.060;2022-08-01T11:55:59;1.05;;;0.60;;
61756;SDS011;57225;61.460;24.060;2022-08-01T11:58:44;1.20;;;0.75;;
61756;SDS011;57225;61.460;24.060;2022-08-01T12:01:29;1.95;;;0.70;;
61756;SDS011;57225;61.460;24.060;2022-08-01T12:04:13;0.93;;;0.73;;
61756;SDS011;57225;61.460;24.060;2022-08-01T12:07:10;0.77;;;0.70;;
61756;SDS011;57225;61.460;24.060;2022-08-01T12:10:00;0.93;;;0.60;;
61756;SDS011;57225;61.460;24.060;2022-08-01T12:12:48;2.20;;;0.70;;
61756;SDS011;57225;61.460;24.060;2022-08-01T12:15:41;2.92;;;0.70;;
61756;SDS011;57225;61.460;24.060;2022-08-01T12:18:25;1.58;;;0.82;;
61756;SDS011;57225;61.460;24.060;2022-08-01T12:21:10;2.67;;;0.75;;
61756;SDS011;57225;61.460;24.060;2022-08-01T12:24:01;0.88;;;0.70;;
61756;SDS011;57225;61.460;24.060;2022-08-01T12:26:46;7.03;;;0.90;;
61756;SDS011;57225;61.460;24.060;2022-08-01T12:29:31;1.27;;;0.73;;
61756;SDS011;57225;61.460;24.060;2022-08-01T12:35:12;1.92;;;0.80;;
61756;SDS011;57225;61.460;24.060;2022-08-01T12:37:59;1.63;;;0.65;;
61756;SDS011;57225;61.460;24.060;2022-08-01T12:40:46;1.48;;;0.60;;
61756;SDS011;57225;61.460;24.060;2022-08-01T12:43:34;2.35;;;0.80;;
61756;SDS011;57225;61.460;24.060;2022-08-01T12:46:18;0.88;;;0.80;;
61756;SDS011;57225;61.460;24.060;2022-08-01T12:49:04;1.45;;;0.57;;
61756;SDS011;57225;61.460;24.060;2022-08-01T12:51:49;4.35;;;0.70;;
61756;SDS011;57225;61.460;24.060;2022-08-01T12:57:45;2.38;;;0.68;;
61756;SDS011;57225;61.460;24.060;2022-08-01T13:00:49;0.90;;;0.60;;
61756;SDS011;57225;61.460;24.060;2022-08-01T13:03:34;2.10;;;0.70;;
61756;SDS011;57225;61.460;24.060;2022-08-01T13:06:18;2.22;;;0.77;;
61756;SDS011;57225;61.460;24.060;2022-08-01T13:09:06;1.40;;;0.80;;
61756;SDS011;57225;61.460;24.060;2022-08-01T13:11:55;2.13;;;0.63;;
61756;SDS011;57225;61.460;24.060;2022-08-01T13:14:39;1.52;;;0.70;;
61756;SDS011;57225;61.460;24.060;2022-08-01T13:17:33;1.58;;;1.02;;
61756;SDS011;57225;61.460;24.060;2022-08-01T13:23:17;3.08;;;0.90;;
61756;SDS011;57225;61.460;24.060;2022-08-01T13:26:03;2.22;;;0.82;;
61756;SDS011;57225;61.460;24.060;2022-08-01T13:29:03;1.70;;;0.60;;
61756;SDS011;57225;61.460;24.060;2022-08-01T13:31:49;1.83;;;0.90;;
61756;SDS011;57225;61.460;24.060;2022-08-01T13:34:33;3.25;;;0.80;;
61756;SDS011;57225;61.460;24.060;2022-08-01T13:37:18;1.15;;;0.88;;
61756;SDS011;57225;61.460;24.060;2022-08-01T13:40:03;0.88;;;0.77;;
61756;SDS011;57225;61.460;24.060;2022-08-01T13:42:47;1.40;;;0.68;;
61756;SDS011;57225;61.460;24.060;2022-08-01T13:45:33;2.72;;;0.75;;
61756;SDS011;57225;61.460;24.060;2022-08-01T13:48:21;1.27;;;0.80;;
61756;SDS011;57225;61.460;24.060;2022-08-01T13:51:05;2.50;;;0.80;;
61756;SDS011;57225;61.460;24.060;2022-08-01T13:53:50;1.90;;;0.65;;
61756;SDS011;57225;61.460;24.060;2022-08-01T13:56:34;0.80;;;0.63;;
61756;SDS011;57225;61.460;24.060;2022-08-01T13:59:19;2.95;;;0.80;;
61756;SDS011;57225;61.460;24.060;2022-08-01T14:02:04;1.08;;;0.77;;
61756;SDS011;57225;61.460;24.060;2022-08-01T14:04:48;0.65;;;0.52;;
61756;SDS011;57225;61.460;24.060;2022-08-01T14:07:33;1.27;;;0.68;;
61756;SDS011;57225;61.460;24.060;2022-08-01T14:10:17;1.02;;;0.93;;
61756;SDS011;57225;61.460;24.060;2022-08-01T14:13:01;0.98;;;0.80;;
61756;SDS011;57225;61.460;24.060;2022-08-01T14:15:45;2.38;;;0.70;;
61756;SDS011;57225;61.460;24.060;2022-08-01T14:18:30;0.95;;;0.70;;
61756;SDS011;57225;61.460;24.060;2022-08-01T14:21:14;1.73;;;0.80;;
61756;SDS011;57225;61.460;24.060;2022-08-01T14:23:58;0.90;;;0.70;;
61756;SDS011;57225;61.460;24.060;2022-08-01T14:26:43;1.88;;;0.80;;
61756;SDS011;57225;61.460;24.060;2022-08-01T14:29:27;1.75;;;0.70;;
61756;SDS011;57225;61.460;24.060;2022-08-01T14:32:11;2.17;;;0.60;;
61756;SDS011;57225;61.460;24.060;2022-08-01T14:34:56;1.05;;;0.85;;
61756;SDS011;57225;61.460;24.060;2022-08-01T14:37:40;0.85;;;0.70;;
61756;SDS011;57225;61.460;24.060;2022-08-01T14:40:25;1.73;;;0.77;;
61756;SDS011;57225;61.460;24.060;2022-08-01T14:43:09;2.72;;;0.70;;
61756;SDS011;57225;61.460;24.060;2022-08-01T14:45:54;0.85;;;0.82;;
61756;SDS011;57225;61.460;24.060;2022-08-01T14:48:38;1.88;;;0.95;;
61756;SDS011;57225;61.460;24.060;2022-08-01T14:51:23;2.50;;;0.82;;
61756;SDS011;57225;61.460;24.060;2022-08-01T14:54:07;1.75;;;0.70;;
61756;SDS011;57225;61.460;24.060;2022-08-01T14:56:52;1.00;;;0.80;;
61756;SDS011;57225;61.460;24.060;2022-08-01T14:59:36;1.98;;;0.80;;
61756;SDS011;57225;61.460;24.060;2022-08-01T15:02:21;1.67;;;0.57;;
61756;SDS011;57225;61.460;24.060;2022-08-01T15:05:05;4.13;;;0.55;;
61756;SDS011;57225;61.460;24.060;2022-08-01T15:07:52;1.30;;;0.68;;
61756;SDS011;57225;61.460;24.060;2022-08-01T15:10:36;4.10;;;0.70;;
61756;SDS011;57225;61.460;24.060;2022-08-01T15:13:20;1.27;;;0.82;;
61756;SDS011;57225;61.460;24.060;2022-08-01T15:16:05;1.02;;;0.80;;
61756;SDS011;57225;61.460;24.060;2022-08-01T15:18:49;1.65;;;0.60;;
61756;SDS011;57225;61.460;24.060;2022-08-01T15:21:33;2.15;;;0.80;;
61756;SDS011;57225;61.460;24.060;2022-08-01T15:24:18;4.85;;;0.90;;
61756;SDS011;57225;61.460;24.060;2022-08-01T15:27:03;1.23;;;0.80;;
61756;SDS011;57225;61.460;24.060;2022-08-01T15:29:49;1.98;;;0.82;;
61756;SDS011;57225;61.460;24.060;2022-08-01T15:32:33;3.35;;;0.90;;
61756;SDS011;57225;61.460;24.060;2022-08-01T15:35:17;1.08;;;0.73;;
61756;SDS011;57225;61.460;24.060;2022-08-01T15:38:02;1.58;;;0.90;;
61756;SDS011;57225;61.460;24.060;2022-08-01T15:40:46;3.95;;;1.00;;
61756;SDS011;57225;61.460;24.060;2022-08-01T15:43:31;0.70;;;0.70;;
61756;SDS011;57225;61.460;24.060;2022-08-01T15:46:15;1.23;;;0.70;;
61756;SDS011;57225;61.460;24.060;2022-08-01T15:49:03;2.72;;;1.00;;
61756;SDS011;57225;61.460;24.060;2022-08-01T15:51:48;1.92;;;0.70;;
61756;SDS011;57225;61.460;24.060;2022-08-01T15:54:34;2.97;;;1.05;;
61756;SDS011;57225;61.460;24.060;2022-08-01T15:57:21;1.52;;;0.88;;
61756;SDS011;57225;61.460;24.060;2022-08-01T16:00:10;4.68;;;1.00;;
61756;SDS011;57225;61.460;24.060;2022-08-01T16:02:54;1.85;;;0.90;;
61756;SDS011;57225;61.460;24.060;2022-08-01T16:05:40;3.83;;;0.80;;
61756;SDS011;57225;61.460;24.060;2022-08-01T16:08:26;2.03;;;0.80;;
61756;SDS011;57225;61.460;24.060;2022-08-01T16:11:11;3.55;;;0.80;;
61756;SDS011;57225;61.460;24.060;2022-08-01T16:13:56;2.28;;;1.00;;
61756;SDS011;57225;61.460;24.060;2022-08-01T16:16:41;0.95;;;0.77;;
61756;SDS011;57225;61.460;24.060;2022-08-01T16:19:26;2.03;;;0.80;;
61756;SDS011;57225;61.460;24.060;2022-08-01T16:22:10;1.85;;;0.65;;
61756;SDS011;57225;61.460;24.060;2022-08-01T16:24:54;1.45;;;0.75;;
61756;SDS011;57225;61.460;24.060;2022-08-01T16:27:39;2.47;;;1.25;;
61756;SDS011;57225;61.460;24.060;2022-08-01T16:30:23;2.90;;;1.00;;
61756;SDS011;57225;61.460;24.060;2022-08-01T16:33:08;1.55;;;0.98;;
61756;SDS011;57225;61.460;24.060;2022-08-01T16:35:53;8.52;;;1.20;;
61756;SDS011;57225;61.460;24.060;2022-08-01T16:38:37;2.90;;;1.00;;
61756;SDS011;57225;61.460;24.060;2022-08-01T16:41:22;1.15;;;0.75;;
61756;SDS011;57225;61.460;24.060;2022-08-01T16:44:06;1.40;;;0.80;;
61756;SDS011;57225;61.460;24.060;2022-08-01T16:46:51;3.63;;;1.10;;
61756;SDS011;57225;61.460;24.060;2022-08-01T16:49:37;1.33;;;0.90;;
61756;SDS011;57225;61.460;24.060;2022-08-01T16:52:21;2.08;;;0.90;;
61756;SDS011;57225;61.460;24.060;2022-08-01T16:55:06;1.88;;;0.90;;
61756;SDS011;57225;61.460;24.060;2022-08-01T16:57:50;4.32;;;1.02;;
61756;SDS011;57225;61.460;24.060;2022-08-01T17:00:35;3.75;;;1.08;;
61756;SDS011;57225;61.460;24.060;2022-08-01T17:03:21;1.73;;;1.00;;
61756;SDS011;57225;61.460;24.060;2022-08-01T17:06:06;4.50;;;1.10;;
61756;SDS011;57225;61.460;24.060;2022-08-01T17:08:50;2.45;;;1.10;;
61756;SDS011;57225;61.460;24.060;2022-08-01T17:11:34;2.60;;;1.13;;
61756;SDS011;57225;61.460;24.060;2022-08-01T17:14:19;1.35;;;0.98;;
61756;SDS011;57225;61.460;24.060;2022-08-01T17:17:03;3.75;;;1.20;;